In Rescue
 
Open Full Screen Window  High Contrast Mode
June 22, 2024 9:10 PM CDT
Weather Information
Wind Direction
  ---
Wind Speed
  00 kt (0 mph)
Wind Gust
  00 kt (0 mph)
Altimeter
29.85 in
Visibility
10 SM
Temperature
19° C
66° F
Dewpoint
17° C
63° F
Humidity
88%
Sky Condition
Overcast @ 3,600 ft
VFR

METAR KSAZ 230210Z AUTO 00000KT 10SM OVC036 19/17 A2985 RMK AO2

FAA Disclaimer: The data displayed is for advisory purposes only and is not to be used for flight planning or operations.